Time;durP1;ratioP1;P1;durP2;ratioP2;P2;SDS_P1;SDS_P2;PMS_P1;PMS_P2;Temp;Humidity;BMP_temperature;BMP_pressure;BME280_temperature;BME280_humidity;BME280_pressure;Samples;Min_cycle;Max_cycle;Signal;HPM_P1;HPM_P2
2023/07/26 00:02:21;;;;;;;9.50;3.15;;;;;;;;;;5070769;28;20036;-74
2023/07/26 00:04:47;;;;;;;16.20;2.58;;;;;;;;;;5081846;28;20082;-73
2023/07/26 00:07:13;;;;;;;16.17;2.63;;;;;;;;;;5073613;28;20602;-73
2023/07/26 00:09:39;;;;;;;8.57;2.50;;;;;;;;;;5074429;28;20019;-74
2023/07/26 00:12:05;;;;;;;12.88;2.60;;;;;;;;;;5071392;28;20090;-74
2023/07/26 00:14:31;;;;;;;10.02;2.78;;;;;;;;;;5069885;28;20025;-74
2023/07/26 00:16:57;;;;;;;11.77;2.08;;;;;;;;;;5070926;28;20052;-75
2023/07/26 00:19:23;;;;;;;10.70;2.92;;;;;;;;;;5071022;28;20067;-74
2023/07/26 00:21:49;;;;;;;16.35;2.95;;;;;;;;;;5073139;28;20432;-75
2023/07/26 00:24:16;;;;;;;15.02;3.22;;;;;;;;;;5074103;28;20029;-74
2023/07/26 00:26:41;;;;;;;12.07;3.20;;;;;;;;;;5073749;28;20479;-75
2023/07/26 00:29:07;;;;;;;9.68;2.30;;;;;;;;;;5073394;28;20035;-74
2023/07/26 00:31:33;;;;;;;13.77;2.58;;;;;;;;;;5074357;28;20025;-72
2023/07/26 00:33:59;;;;;;;12.73;2.67;;;;;;;;;;5075008;28;20403;-74
2023/07/26 00:36:25;;;;;;;8.23;2.05;;;;;;;;;;5077015;28;20043;-76
2023/07/26 00:38:51;;;;;;;11.70;2.58;;;;;;;;;;5081892;28;20106;-73
2023/07/26 00:41:17;;;;;;;13.60;2.70;;;;;;;;;;5082555;28;20461;-73
2023/07/26 00:43:43;;;;;;;8.52;2.10;;;;;;;;;;5083578;28;20024;-72
2023/07/26 00:46:10;;;;;;;12.70;3.08;;;;;;;;;;5075238;28;20020;-72
2023/07/26 00:48:36;;;;;;;10.43;2.70;;;;;;;;;;5074193;28;20024;-73
2023/07/26 00:51:03;;;;;;;7.88;2.53;;;;;;;;;;5073481;28;20031;-73
2023/07/26 00:53:29;;;;;;;8.18;2.65;;;;;;;;;;5072818;28;20024;-72
2023/07/26 00:55:55;;;;;;;10.63;2.53;;;;;;;;;;5073912;28;20049;-73
2023/07/26 00:58:21;;;;;;;8.75;2.95;;;;;;;;;;5073328;28;20028;-73
2023/07/26 01:00:47;;;;;;;8.50;2.70;;;;;;;;;;5071779;28;20024;-72
2023/07/26 01:03:14;;;;;;;14.85;3.15;;;;;;;;;;5073788;28;20466;-73
2023/07/26 01:05:52;;;;;;;7.85;2.58;;;;;;;;;;5074426;28;20025;-72
2023/07/26 01:08:30;;;;;;;7.18;2.15;;;;;;;;;;5074291;28;20032;-74
2023/07/26 01:11:02;;;;;;;10.52;2.50;;;;;;;;;;5073687;28;20028;-73
2023/07/26 01:13:32;;;;;;;10.85;2.55;;;;;;;;;;5073868;28;20017;-72
2023/07/26 01:16:00;;;;;;;9.73;2.83;;;;;;;;;;5074259;28;20039;-73
2023/07/26 01:18:26;;;;;;;7.70;2.40;;;;;;;;;;5074067;28;20421;-72
2023/07/26 01:20:52;;;;;;;10.18;2.80;;;;;;;;;;5074151;28;20024;-72
2023/07/26 01:23:18;;;;;;;12.70;2.72;;;;;;;;;;5073792;28;20025;-72
2023/07/26 01:25:44;;;;;;;11.93;2.80;;;;;;;;;;5073964;28;20052;-72
2023/07/26 01:28:10;;;;;;;9.65;2.50;;;;;;;;;;5073996;28;20103;-72
2023/07/26 01:30:36;;;;;;;11.23;2.47;;;;;;;;;;5073973;28;20028;-72
2023/07/26 01:33:03;;;;;;;9.57;2.45;;;;;;;;;;5073850;28;20406;-73
2023/07/26 01:35:30;;;;;;;10.05;2.63;;;;;;;;;;5073771;28;20016;-73
2023/07/26 01:37:56;;;;;;;9.13;2.42;;;;;;;;;;5073846;28;20477;-72
2023/07/26 01:40:23;;;;;;;14.10;2.45;;;;;;;;;;5073660;28;20040;-72
2023/07/26 01:42:49;;;;;;;12.23;2.50;;;;;;;;;;5073467;28;20029;-72
2023/07/26 01:45:16;;;;;;;10.95;2.70;;;;;;;;;;5073515;28;20024;-74
2023/07/26 01:47:42;;;;;;;6.43;2.50;;;;;;;;;;5072293;28;20035;-74
2023/07/26 01:50:08;;;;;;;7.65;2.15;;;;;;;;;;5072880;28;20390;-73
2023/07/26 01:52:34;;;;;;;8.07;2.35;;;;;;;;;;5072703;28;20044;-72
2023/07/26 01:55:00;;;;;;;7.50;2.55;;;;;;;;;;5073845;28;20060;-72
2023/07/26 01:57:27;;;;;;;9.38;2.38;;;;;;;;;;5073628;28;20082;-72
2023/07/26 01:59:53;;;;;;;11.52;2.83;;;;;;;;;;5073539;28;20031;-73
2023/07/26 02:02:19;;;;;;;10.32;2.58;;;;;;;;;;5073226;28;20025;-73
2023/07/26 02:04:45;;;;;;;8.95;2.80;;;;;;;;;;5073426;28;20028;-73
2023/07/26 02:07:11;;;;;;;12.57;2.80;;;;;;;;;;5073449;28;20029;-73
2023/07/26 02:09:38;;;;;;;10.35;2.72;;;;;;;;;;5073384;28;20036;-73
2023/07/26 02:12:04;;;;;;;7.75;2.40;;;;;;;;;;5072760;28;20025;-73
2023/07/26 02:14:30;;;;;;;14.85;2.90;;;;;;;;;;5073095;28;20059;-72
2023/07/26 02:16:56;;;;;;;11.57;2.50;;;;;;;;;;5072845;28;20028;-72
2023/07/26 02:19:22;;;;;;;15.00;3.38;;;;;;;;;;5073099;28;20521;-72
2023/07/26 02:21:48;;;;;;;11.90;2.75;;;;;;;;;;5072694;28;20379;-73
2023/07/26 02:24:15;;;;;;;13.82;3.08;;;;;;;;;;5072969;28;20024;-73
2023/07/26 02:26:40;;;;;;;9.35;2.95;;;;;;;;;;5072870;28;20020;-74
2023/07/26 02:29:06;;;;;;;10.45;2.78;;;;;;;;;;5072685;28;20027;-73
2023/07/26 02:31:32;;;;;;;12.10;3.25;;;;;;;;;;5073041;28;20036;-73
2023/07/26 02:33:58;;;;;;;9.57;3.40;;;;;;;;;;5072618;28;20133;-73
2023/07/26 02:36:25;;;;;;;9.48;3.10;;;;;;;;;;5072493;28;20024;-73
2023/07/26 02:38:51;;;;;;;10.75;2.72;;;;;;;;;;5072914;28;20055;-71
2023/07/26 02:41:17;;;;;;;15.43;3.97;;;;;;;;;;5073032;28;20036;-73
2023/07/26 02:43:43;;;;;;;12.05;3.60;;;;;;;;;;5073041;28;20028;-75
2023/07/26 02:46:09;;;;;;;14.77;3.15;;;;;;;;;;5073887;28;20031;-75
2023/07/26 02:48:35;;;;;;;7.75;3.10;;;;;;;;;;5074912;28;20086;-74
2023/07/26 02:51:01;;;;;;;15.52;3.38;;;;;;;;;;5074895;28;20073;-74
2023/07/26 02:53:28;;;;;;;8.00;2.88;;;;;;;;;;5072119;28;20124;-73
2023/07/26 02:55:54;;;;;;;10.93;3.25;;;;;;;;;;5072790;28;20062;-74
2023/07/26 02:58:20;;;;;;;14.07;3.17;;;;;;;;;;5072162;28;20025;-74
2023/07/26 03:00:46;;;;;;;11.57;2.85;;;;;;;;;;5072190;28;20029;-73
2023/07/26 03:03:12;;;;;;;10.55;3.17;;;;;;;;;;5071076;28;20141;-74
2023/07/26 03:05:38;;;;;;;10.43;3.65;;;;;;;;;;5072150;28;20031;-74
2023/07/26 03:08:04;;;;;;;8.73;2.97;;;;;;;;;;5072117;28;20025;-74
2023/07/26 03:10:30;;;;;;;11.02;2.83;;;;;;;;;;5071880;28;20021;-73
2023/07/26 03:12:56;;;;;;;8.65;2.85;;;;;;;;;;5071187;28;20497;-74
2023/07/26 03:15:22;;;;;;;11.10;3.03;;;;;;;;;;5071766;28;20032;-74
2023/07/26 03:17:48;;;;;;;12.43;3.67;;;;;;;;;;5072206;28;20482;-72
2023/07/26 03:20:14;;;;;;;10.20;3.47;;;;;;;;;;5071830;28;20031;-73
2023/07/26 03:22:40;;;;;;;10.77;3.15;;;;;;;;;;5071118;28;20025;-73
2023/07/26 03:25:06;;;;;;;11.02;3.00;;;;;;;;;;5071702;28;20024;-73
2023/07/26 03:27:32;;;;;;;9.05;3.05;;;;;;;;;;5071451;28;20036;-73
2023/07/26 03:29:58;;;;;;;12.10;3.13;;;;;;;;;;5071866;28;20032;-73
2023/07/26 03:32:24;;;;;;;9.07;3.30;;;;;;;;;;5071035;28;20049;-73
2023/07/26 03:34:50;;;;;;;12.65;3.40;;;;;;;;;;5071501;28;20033;-72
2023/07/26 03:37:16;;;;;;;9.88;3.45;;;;;;;;;;5073494;28;20036;-73
2023/07/26 03:39:42;;;;;;;9.02;3.53;;;;;;;;;;5071248;28;20031;-73
2023/07/26 03:42:08;;;;;;;13.93;3.40;;;;;;;;;;5070771;28;20068;-74
2023/07/26 03:44:34;;;;;;;11.52;3.97;;;;;;;;;;5070450;28;20081;-74
2023/07/26 03:47:00;;;;;;;10.88;3.80;;;;;;;;;;5072653;28;20021;-75
2023/07/26 03:49:26;;;;;;;8.27;3.20;;;;;;;;;;5073683;28;20021;-74
2023/07/26 03:51:52;;;;;;;9.68;3.42;;;;;;;;;;5071746;28;20089;-74
2023/07/26 03:54:18;;;;;;;11.30;3.28;;;;;;;;;;5073687;28;20066;-75
2023/07/26 03:56:44;;;;;;;12.32;4.00;;;;;;;;;;5073079;28;20048;-74
2023/07/26 03:59:10;;;;;;;10.60;2.92;;;;;;;;;;5071695;28;20500;-73
2023/07/26 04:01:36;;;;;;;9.55;3.03;;;;;;;;;;5073409;28;20051;-74
2023/07/26 04:04:02;;;;;;;11.00;2.95;;;;;;;;;;5072022;28;20529;-74
2023/07/26 04:06:28;;;;;;;9.13;2.95;;;;;;;;;;5071658;28;20056;-73
2023/07/26 04:08:55;;;;;;;8.88;3.75;;;;;;;;;;5071857;28;20367;-73
2023/07/26 04:11:21;;;;;;;11.07;2.85;;;;;;;;;;5072491;28;20537;-72
2023/07/26 04:13:47;;;;;;;11.77;3.38;;;;;;;;;;5070830;28;20382;-73
2023/07/26 04:16:14;;;;;;;11.45;3.60;;;;;;;;;;5075253;28;20029;-72
2023/07/26 04:18:40;;;;;;;10.07;2.97;;;;;;;;;;5076875;28;20025;-73
2023/07/26 04:21:06;;;;;;;13.68;3.25;;;;;;;;;;5080084;28;20048;-73
2023/07/26 04:23:32;;;;;;;14.18;3.63;;;;;;;;;;5079398;28;20474;-74
2023/07/26 04:25:58;;;;;;;12.48;3.35;;;;;;;;;;5080739;28;20043;-72
2023/07/26 04:28:24;;;;;;;11.73;3.08;;;;;;;;;;5078635;28;20016;-75
2023/07/26 04:30:51;;;;;;;10.68;3.25;;;;;;;;;;5076029;28;20020;-74
2023/07/26 04:33:17;;;;;;;10.10;3.33;;;;;;;;;;5075697;28;20103;-75
2023/07/26 04:35:45;;;;;;;11.82;3.30;;;;;;;;;;5075272;28;20059;-73
2023/07/26 04:38:11;;;;;;;12.15;3.13;;;;;;;;;;5075154;28;20021;-74
2023/07/26 04:40:37;;;;;;;9.45;3.30;;;;;;;;;;5074874;28;20054;-73
2023/07/26 04:43:04;;;;;;;10.77;3.10;;;;;;;;;;5071844;28;20048;-74
2023/07/26 04:45:31;;;;;;;11.80;3.25;;;;;;;;;;5074511;28;20367;-75
2023/07/26 04:47:57;;;;;;;7.50;2.60;;;;;;;;;;5074736;28;20024;-77
2023/07/26 04:50:23;;;;;;;11.75;3.42;;;;;;;;;;5076055;28;20055;-76
2023/07/26 04:52:49;;;;;;;11.23;2.97;;;;;;;;;;5072405;28;20497;-76
2023/07/26 04:55:15;;;;;;;8.80;2.90;;;;;;;;;;5081169;28;20031;-74
2023/07/26 04:57:40;;;;;;;8.15;2.72;;;;;;;;;;5074442;28;20666;-75
2023/07/26 05:00:07;;;;;;;12.93;3.35;;;;;;;;;;5088636;28;20063;-76
2023/07/26 05:02:33;;;;;;;10.23;3.00;;;;;;;;;;5079927;28;20073;-76
2023/07/26 05:04:59;;;;;;;7.60;2.90;;;;;;;;;;5087976;28;20036;-75
2023/07/26 05:07:25;;;;;;;10.93;3.63;;;;;;;;;;5077158;28;20107;-76
2023/07/26 05:09:51;;;;;;;12.82;3.35;;;;;;;;;;5076471;28;20020;-75
2023/07/26 05:12:17;;;;;;;8.60;3.30;;;;;;;;;;5084116;28;20025;-72
2023/07/26 05:14:44;;;;;;;18.90;3.30;;;;;;;;;;5096047;28;20066;-74
2023/07/26 05:17:10;;;;;;;11.50;3.10;;;;;;;;;;5097100;28;20028;-74
2023/07/26 05:19:36;;;;;;;8.48;3.08;;;;;;;;;;5096448;28;20104;-73
2023/07/26 05:22:02;;;;;;;15.18;3.47;;;;;;;;;;5093019;28;20028;-75
2023/07/26 05:24:28;;;;;;;11.52;3.38;;;;;;;;;;5078659;28;20487;-74
2023/07/26 05:26:54;;;;;;;14.65;3.47;;;;;;;;;;5076272;28;20032;-73
2023/07/26 05:29:20;;;;;;;9.88;3.20;;;;;;;;;;5075668;28;20024;-74
2023/07/26 05:31:46;;;;;;;12.48;3.70;;;;;;;;;;5075836;28;20076;-73
2023/07/26 05:34:12;;;;;;;10.07;3.00;;;;;;;;;;5074860;28;20027;-74
2023/07/26 05:36:38;;;;;;;11.60;3.22;;;;;;;;;;5074204;28;20182;-73
2023/07/26 05:39:04;;;;;;;18.02;3.38;;;;;;;;;;5074063;28;20047;-73
2023/07/26 05:41:31;;;;;;;15.93;3.83;;;;;;;;;;5073641;28;20450;-74
2023/07/26 05:43:58;;;;;;;9.77;3.05;;;;;;;;;;5073743;28;20059;-72
2023/07/26 05:46:24;;;;;;;11.23;3.00;;;;;;;;;;5073596;28;20020;-74
2023/07/26 05:48:50;;;;;;;12.05;3.08;;;;;;;;;;5073634;28;20056;-74
2023/07/26 05:51:16;;;;;;;14.73;3.78;;;;;;;;;;5073508;28;20020;-75
2023/07/26 05:53:42;;;;;;;12.80;3.70;;;;;;;;;;5074624;28;20486;-77
2023/07/26 05:56:08;;;;;;;10.23;3.05;;;;;;;;;;5072676;28;20021;-74
2023/07/26 05:58:35;;;;;;;10.15;3.25;;;;;;;;;;5075339;28;20035;-72
2023/07/26 06:01:00;;;;;;;9.02;2.78;;;;;;;;;;5074678;28;20389;-76
2023/07/26 06:03:27;;;;;;;13.43;3.28;;;;;;;;;;5072840;28;20029;-76
2023/07/26 06:05:53;;;;;;;10.35;3.90;;;;;;;;;;5073212;28;20571;-75
2023/07/26 06:08:19;;;;;;;9.65;2.88;;;;;;;;;;5073975;28;20037;-74
2023/07/26 06:10:45;;;;;;;11.93;3.60;;;;;;;;;;5097165;28;20043;-73
2023/07/26 06:13:12;;;;;;;7.75;2.80;;;;;;;;;;5096126;28;20033;-71
2023/07/26 06:15:41;;;;;;;11.13;2.75;;;;;;;;;;5097463;28;20016;-73
2023/07/26 06:18:07;;;;;;;19.48;3.10;;;;;;;;;;5080112;28;20478;-74
2023/07/26 06:20:34;;;;;;;13.50;2.80;;;;;;;;;;5072923;28;20382;-73
2023/07/26 06:23:00;;;;;;;8.43;3.17;;;;;;;;;;5073024;28;20421;-72
2023/07/26 06:25:26;;;;;;;11.25;2.83;;;;;;;;;;5073127;28;20524;-73
2023/07/26 06:27:52;;;;;;;7.43;2.53;;;;;;;;;;5074647;28;20023;-74
2023/07/26 06:30:17;;;;;;;10.60;2.80;;;;;;;;;;5077470;28;20031;-73
2023/07/26 06:32:44;;;;;;;7.55;2.28;;;;;;;;;;5069530;28;20024;-75
2023/07/26 06:35:10;;;;;;;14.00;3.10;;;;;;;;;;5072196;28;20067;-73
2023/07/26 06:37:36;;;;;;;9.98;2.38;;;;;;;;;;5072037;28;20024;-73
2023/07/26 06:40:02;;;;;;;9.70;2.53;;;;;;;;;;5060373;28;20486;-76
2023/07/26 06:42:29;;;;;;;11.68;2.78;;;;;;;;;;5052590;28;20036;-74
2023/07/26 06:44:55;;;;;;;19.95;2.90;;;;;;;;;;5052703;28;20382;-73
2023/07/26 06:47:21;;;;;;;13.73;2.50;;;;;;;;;;5053543;28;20044;-73
2023/07/26 06:49:47;;;;;;;9.48;2.65;;;;;;;;;;5052999;28;20021;-74
2023/07/26 06:52:13;;;;;;;12.02;2.88;;;;;;;;;;5051777;28;20095;-74
2023/07/26 06:54:39;;;;;;;15.38;2.25;;;;;;;;;;5055336;28;20029;-73
2023/07/26 06:57:05;;;;;;;9.88;2.58;;;;;;;;;;5053110;28;20063;-73
2023/07/26 06:59:31;;;;;;;13.70;2.67;;;;;;;;;;5052062;28;20039;-74
2023/07/26 07:01:57;;;;;;;13.27;2.92;;;;;;;;;;5048610;28;20021;-72
2023/07/26 07:04:23;;;;;;;8.32;2.50;;;;;;;;;;5051655;28;20029;-73
2023/07/26 07:06:49;;;;;;;13.70;2.88;;;;;;;;;;5052520;28;20092;-74
2023/07/26 07:09:15;;;;;;;13.60;2.50;;;;;;;;;;5057938;28;20029;-74
2023/07/26 07:11:41;;;;;;;11.25;2.67;;;;;;;;;;5056941;28;20032;-75
2023/07/26 07:14:07;;;;;;;8.15;2.67;;;;;;;;;;5071153;28;20020;-73
2023/07/26 07:16:33;;;;;;;10.93;2.70;;;;;;;;;;5072647;28;20051;-72
2023/07/26 07:18:59;;;;;;;9.65;2.65;;;;;;;;;;5078455;28;20039;-72
2023/07/26 07:21:25;;;;;;;8.88;2.20;;;;;;;;;;5076661;28;20036;-73
2023/07/26 07:23:51;;;;;;;12.02;2.67;;;;;;;;;;5090423;28;20031;-78
2023/07/26 07:26:17;;;;;;;11.52;2.67;;;;;;;;;;5072126;28;20028;-74
2023/07/26 07:28:43;;;;;;;12.02;2.80;;;;;;;;;;5073315;28;20017;-73
2023/07/26 07:31:09;;;;;;;8.02;2.35;;;;;;;;;;5072014;28;20024;-73
2023/07/26 07:33:36;;;;;;;10.70;2.58;;;;;;;;;;5068908;28;20020;-72
2023/07/26 07:36:03;;;;;;;6.80;2.47;;;;;;;;;;5071313;28;20020;-73
2023/07/26 07:38:29;;;;;;;17.67;2.55;;;;;;;;;;5069780;28;20031;-72
2023/07/26 07:40:55;;;;;;;9.40;2.90;;;;;;;;;;5069852;28;20036;-74
2023/07/26 07:43:21;;;;;;;12.30;2.92;;;;;;;;;;5069884;28;20035;-75
2023/07/26 07:45:47;;;;;;;14.32;2.70;;;;;;;;;;5070019;28;20024;-73
2023/07/26 07:48:13;;;;;;;10.95;2.70;;;;;;;;;;5070063;28;20059;-72
2023/07/26 07:50:39;;;;;;;7.22;2.35;;;;;;;;;;5070244;28;20382;-72
2023/07/26 07:53:05;;;;;;;10.85;3.00;;;;;;;;;;5069657;28;20081;-72
2023/07/26 07:55:31;;;;;;;14.88;3.20;;;;;;;;;;5070065;28;20024;-72
2023/07/26 07:57:59;;;;;;;10.68;2.63;;;;;;;;;;5071267;28;20031;-72
2023/07/26 08:00:25;;;;;;;7.45;2.50;;;;;;;;;;5071406;28;20021;-79
2023/07/26 08:02:51;;;;;;;11.93;2.83;;;;;;;;;;5071655;28;20497;-72
2023/07/26 08:05:17;;;;;;;10.82;2.80;;;;;;;;;;5071213;28;20025;-73
2023/07/26 08:07:43;;;;;;;8.95;2.53;;;;;;;;;;5071279;28;20029;-72
2023/07/26 08:10:09;;;;;;;11.95;2.35;;;;;;;;;;5070879;28;20532;-74
2023/07/26 08:12:35;;;;;;;9.88;2.53;;;;;;;;;;5071122;28;20067;-75
2023/07/26 08:15:01;;;;;;;15.43;3.13;;;;;;;;;;5071370;28;20032;-75
2023/07/26 08:17:27;;;;;;;13.82;3.15;;;;;;;;;;5071180;28;20030;-75
2023/07/26 08:19:53;;;;;;;12.10;2.90;;;;;;;;;;5071270;28;20028;-74
2023/07/26 08:22:19;;;;;;;11.68;2.63;;;;;;;;;;5070704;28;20024;-76
2023/07/26 08:24:45;;;;;;;10.38;2.78;;;;;;;;;;5072057;28;20096;-77
2023/07/26 08:27:11;;;;;;;12.48;2.58;;;;;;;;;;5071124;28;20389;-77
2023/07/26 08:29:37;;;;;;;10.13;2.30;;;;;;;;;;5071757;28;20052;-76
2023/07/26 08:32:03;;;;;;;12.93;2.20;;;;;;;;;;5069375;28;20069;-76
2023/07/26 08:34:29;;;;;;;13.15;2.35;;;;;;;;;;5071612;28;20020;-77
2023/07/26 08:36:55;;;;;;;6.40;2.00;;;;;;;;;;5071128;28;20032;-76
2023/07/26 08:39:21;;;;;;;3.90;1.90;;;;;;;;;;5070825;28;20032;-75
2023/07/26 08:41:48;;;;;;;5.93;2.05;;;;;;;;;;5070690;28;20506;-76
2023/07/26 08:44:14;;;;;;;8.13;2.00;;;;;;;;;;5070973;28;20043;-74
2023/07/26 08:46:41;;;;;;;4.07;1.73;;;;;;;;;;5070802;28;20035;-73
2023/07/26 08:49:07;;;;;;;5.07;2.40;;;;;;;;;;5070880;28;20540;-75
2023/07/26 08:51:33;;;;;;;4.07;1.60;;;;;;;;;;5071000;28;20024;-73
2023/07/26 08:53:59;;;;;;;3.90;1.60;;;;;;;;;;5070950;28;20028;-78
2023/07/26 08:56:26;;;;;;;3.15;1.58;;;;;;;;;;5073087;28;20020;-73
2023/07/26 08:58:52;;;;;;;4.55;1.83;;;;;;;;;;5070693;28;20025;-74
2023/07/26 09:01:19;;;;;;;3.60;1.58;;;;;;;;;;5071082;28;20025;-74
2023/07/26 09:03:46;;;;;;;7.45;2.10;;;;;;;;;;5073904;28;20051;-75
2023/07/26 09:06:12;;;;;;;3.90;1.50;;;;;;;;;;5075023;28;20032;-73
2023/07/26 09:08:38;;;;;;;3.92;1.25;;;;;;;;;;5073028;28;20368;-73
2023/07/26 09:11:23;;;;;;;2.90;1.27;;;;;;;;;;5074293;28;20032;-73
2023/07/26 09:13:56;;;;;;;3.42;1.60;;;;;;;;;;5074598;28;20070;-74
2023/07/26 09:16:22;;;;;;;3.20;1.42;;;;;;;;;;5076372;28;20542;-77
2023/07/26 09:18:56;;;;;;;3.10;1.30;;;;;;;;;;5074846;28;20451;-74
2023/07/26 09:21:25;;;;;;;2.35;1.20;;;;;;;;;;5073950;28;20428;-75
2023/07/26 09:23:51;;;;;;;3.38;1.50;;;;;;;;;;5073592;28;20029;-73
2023/07/26 09:26:17;;;;;;;3.78;1.20;;;;;;;;;;5073866;28;20028;-73
2023/07/26 09:28:53;;;;;;;1.67;1.10;;;;;;;;;;5073788;28;20066;-76
2023/07/26 09:31:30;;;;;;;2.97;1.10;;;;;;;;;;5074287;28;20020;-74
2023/07/26 09:33:56;;;;;;;2.67;1.42;;;;;;;;;;5074546;28;20021;-73
2023/07/26 09:36:23;;;;;;;2.92;1.20;;;;;;;;;;5073866;28;20032;-75
2023/07/26 09:38:49;;;;;;;3.10;1.42;;;;;;;;;;5074754;28;20024;-74
2023/07/26 09:41:23;;;;;;;4.10;1.60;;;;;;;;;;5079743;28;20036;-73
2023/07/26 09:43:51;;;;;;;3.13;1.38;;;;;;;;;;5092641;28;20083;-73
2023/07/26 09:46:17;;;;;;;2.55;1.27;;;;;;;;;;5093261;28;20020;-74
2023/07/26 09:48:57;;;;;;;2.30;1.38;;;;;;;;;;5082319;28;20044;-73
2023/07/26 09:51:24;;;;;;;5.18;1.65;;;;;;;;;;5076733;28;20036;-75
2023/07/26 09:53:50;;;;;;;2.55;1.25;;;;;;;;;;5073489;28;20066;-75
2023/07/26 09:56:17;;;;;;;6.60;2.00;;;;;;;;;;5073754;28;20056;-74
2023/07/26 09:58:43;;;;;;;3.78;1.70;;;;;;;;;;5073543;28;20498;-78
2023/07/26 10:01:11;;;;;;;4.03;1.40;;;;;;;;;;5073374;28;20505;-74
2023/07/26 10:03:39;;;;;;;5.13;1.52;;;;;;;;;;5072751;28;20024;-74
2023/07/26 10:06:06;;;;;;;3.75;1.45;;;;;;;;;;5073133;28;20103;-75
2023/07/26 10:08:32;;;;;;;3.35;1.35;;;;;;;;;;5072637;28;20039;-74
2023/07/26 10:10:58;;;;;;;2.92;1.60;;;;;;;;;;5073082;28;20474;-75
2023/07/26 10:13:25;;;;;;;3.17;1.25;;;;;;;;;;5083875;28;20466;-74
2023/07/26 10:15:52;;;;;;;2.92;1.30;;;;;;;;;;5093779;28;20035;-72
2023/07/26 10:18:20;;;;;;;2.80;1.60;;;;;;;;;;5078926;28;20052;-72
2023/07/26 10:20:46;;;;;;;3.22;1.50;;;;;;;;;;5072929;28;20060;-72
2023/07/26 10:23:12;;;;;;;2.55;1.50;;;;;;;;;;5071864;28;20033;-73
2023/07/26 10:25:39;;;;;;;3.05;0.82;;;;;;;;;;5072447;28;20081;-73
2023/07/26 10:28:06;;;;;;;2.20;1.10;;;;;;;;;;5075116;28;20020;-73
2023/07/26 10:30:32;;;;;;;2.45;1.08;;;;;;;;;;5078225;28;20019;-73
2023/07/26 10:33:00;;;;;;;5.05;1.20;;;;;;;;;;5083032;28;20385;-74
2023/07/26 10:35:33;;;;;;;4.60;1.20;;;;;;;;;;5081248;28;20024;-74
2023/07/26 10:38:00;;;;;;;2.75;1.30;;;;;;;;;;5083077;28;20086;-73
2023/07/26 10:40:29;;;;;;;2.17;1.00;;;;;;;;;;5078951;28;20027;-73
2023/07/26 10:42:55;;;;;;;4.10;1.30;;;;;;;;;;5084562;28;20016;-73
2023/07/26 10:45:38;;;;;;;2.70;1.50;;;;;;;;;;5082293;28;20100;-71
2023/07/26 10:48:04;;;;;;;2.20;1.23;;;;;;;;;;5082487;28;20103;-75
2023/07/26 10:50:30;;;;;;;2.88;1.52;;;;;;;;;;5085879;28;20019;-75
2023/07/26 10:52:57;;;;;;;2.67;1.30;;;;;;;;;;5085138;28;20031;-72
2023/07/26 10:55:27;;;;;;;3.58;1.33;;;;;;;;;;5078291;28;20420;-75
2023/07/26 10:57:53;;;;;;;5.03;1.63;;;;;;;;;;5078445;28;20056;-73
2023/07/26 11:00:32;;;;;;;3.05;1.15;;;;;;;;;;5085397;28;20069;-75
2023/07/26 11:03:01;;;;;;;2.40;1.30;;;;;;;;;;5084293;28;20108;-73
2023/07/26 11:05:29;;;;;;;3.83;1.35;;;;;;;;;;5081682;28;20012;-75
2023/07/26 11:08:02;;;;;;;4.43;1.48;;;;;;;;;;5080511;28;20013;-73
2023/07/26 11:10:30;;;;;;;4.07;1.35;;;;;;;;;;5080738;28;20106;-75
2023/07/26 11:13:10;;;;;;;4.15;1.63;;;;;;;;;;5084998;28;20110;-73
2023/07/26 11:15:37;;;;;;;4.25;1.42;;;;;;;;;;5092306;28;20052;-73
2023/07/26 11:18:03;;;;;;;2.85;1.48;;;;;;;;;;5091991;28;20028;-72
2023/07/26 11:20:29;;;;;;;5.53;1.23;;;;;;;;;;5092147;28;20085;-74
2023/07/26 11:22:55;;;;;;;4.03;1.30;;;;;;;;;;5091581;28;20020;-76
2023/07/26 11:25:22;;;;;;;1.90;1.27;;;;;;;;;;5092512;28;20341;-73
2023/07/26 11:27:48;;;;;;;3.13;1.20;;;;;;;;;;5092774;28;20096;-74
2023/07/26 11:30:18;;;;;;;3.22;1.30;;;;;;;;;;5092495;28;20023;-74
2023/07/26 11:32:45;;;;;;;3.85;1.45;;;;;;;;;;5091854;28;20393;-74
2023/07/26 11:35:11;;;;;;;1.83;1.33;;;;;;;;;;5092665;28;20386;-74
2023/07/26 11:37:37;;;;;;;2.33;1.30;;;;;;;;;;5071947;28;20021;-74
2023/07/26 11:40:04;;;;;;;2.80;1.35;;;;;;;;;;5071759;28;20029;-75
2023/07/26 11:42:33;;;;;;;1.70;1.02;;;;;;;;;;5070760;28;20117;-75
2023/07/26 11:45:00;;;;;;;2.47;0.90;;;;;;;;;;5071905;28;20024;-73
2023/07/26 11:47:28;;;;;;;2.80;0.70;;;;;;;;;;5055417;28;20104;-73
2023/07/26 11:49:54;;;;;;;5.53;1.08;;;;;;;;;;5055958;28;20028;-74
2023/07/26 11:52:20;;;;;;;2.70;1.00;;;;;;;;;;5050762;28;20104;-72
2023/07/26 11:54:57;;;;;;;3.58;1.08;;;;;;;;;;5051210;28;20053;-71
2023/07/26 11:57:23;;;;;;;2.65;1.60;;;;;;;;;;5051461;28;20052;-72
2023/07/26 11:59:50;;;;;;;6.95;1.92;;;;;;;;;;5051398;28;20029;-73
2023/07/26 12:02:16;;;;;;;4.80;1.20;;;;;;;;;;5050649;28;20047;-73
2023/07/26 12:04:42;;;;;;;3.63;1.38;;;;;;;;;;5051182;28;20104;-74
2023/07/26 12:07:10;;;;;;;3.33;1.52;;;;;;;;;;5051212;28;20113;-74
2023/07/26 12:09:48;;;;;;;2.33;1.00;;;;;;;;;;5051084;28;20017;-73
2023/07/26 12:12:14;;;;;;;4.95;1.50;;;;;;;;;;5050708;28;20074;-72
2023/07/26 12:14:40;;;;;;;3.80;1.35;;;;;;;;;;5051205;28;20434;-72
2023/07/26 12:17:15;;;;;;;5.28;1.45;;;;;;;;;;5051234;28;20043;-73
2023/07/26 12:19:45;;;;;;;2.17;1.10;;;;;;;;;;5049781;28;20056;-73
2023/07/26 12:22:11;;;;;;;2.65;1.00;;;;;;;;;;5050763;28;20029;-71
2023/07/26 12:24:54;;;;;;;5.38;1.63;;;;;;;;;;5049295;28;20025;-75
2023/07/26 12:27:20;;;;;;;3.80;1.40;;;;;;;;;;5051664;28;20025;-74
2023/07/26 12:29:46;;;;;;;2.65;1.55;;;;;;;;;;5051943;28;20029;-75
2023/07/26 12:32:15;;;;;;;3.13;1.40;;;;;;;;;;5049904;28;20114;-74
2023/07/26 12:34:42;;;;;;;1.48;1.02;;;;;;;;;;5062354;28;20025;-73
2023/07/26 12:37:09;;;;;;;6.45;1.33;;;;;;;;;;5075034;28;20021;-73
2023/07/26 12:39:40;;;;;;;8.15;2.30;;;;;;;;;;5074584;28;20119;-73
2023/07/26 12:42:08;;;;;;;12.10;7.90;;;;;;;;;;5073698;28;20036;-74
2023/07/26 12:44:34;;;;;;;4.50;2.10;;;;;;;;;;5074309;28;20135;-72
2023/07/26 12:47:00;;;;;;;8.05;2.00;;;;;;;;;;5074449;28;20107;-74
2023/07/26 12:49:27;;;;;;;3.08;1.15;;;;;;;;;;5074681;28;20020;-73
2023/07/26 12:51:53;;;;;;;2.42;1.00;;;;;;;;;;5069272;28;20258;-72
2023/07/26 12:54:19;;;;;;;1.98;1.10;;;;;;;;;;5077536;28;20510;-72
2023/07/26 12:56:45;;;;;;;1.35;0.90;;;;;;;;;;5074283;28;20559;-72
2023/07/26 12:59:11;;;;;;;2.22;1.00;;;;;;;;;;5074252;28;20490;-73
2023/07/26 13:01:37;;;;;;;1.23;0.85;;;;;;;;;;5072678;28;20031;-72
2023/07/26 13:04:03;;;;;;;2.55;1.10;;;;;;;;;;5073351;28;20024;-72
2023/07/26 13:06:29;;;;;;;1.45;0.90;;;;;;;;;;5073957;28;20105;-72
2023/07/26 13:08:55;;;;;;;1.58;1.00;;;;;;;;;;5075108;28;20033;-73
2023/07/26 13:11:21;;;;;;;1.70;1.38;;;;;;;;;;5077998;28;20070;-74
2023/07/26 13:13:47;;;;;;;2.85;1.20;;;;;;;;;;5073113;28;20078;-73
2023/07/26 13:16:13;;;;;;;2.65;1.13;;;;;;;;;;5074034;28;20032;-72
2023/07/26 13:18:39;;;;;;;3.67;1.85;;;;;;;;;;5073696;28;20028;-73
2023/07/26 13:21:05;;;;;;;2.47;1.27;;;;;;;;;;5073936;28;20020;-73
2023/07/26 13:23:31;;;;;;;4.50;1.60;;;;;;;;;;5073444;28;20032;-73
2023/07/26 13:25:57;;;;;;;6.03;1.40;;;;;;;;;;5073725;28;20040;-72
2023/07/26 13:28:23;;;;;;;3.25;1.52;;;;;;;;;;5072319;28;20025;-73
2023/07/26 13:30:49;;;;;;;2.22;1.50;;;;;;;;;;5073484;28;20087;-74
2023/07/26 13:33:15;;;;;;;2.25;1.63;;;;;;;;;;5073159;28;20104;-72
2023/07/26 13:35:41;;;;;;;3.03;1.50;;;;;;;;;;5073582;28;20103;-71
2023/07/26 13:38:07;;;;;;;3.67;1.70;;;;;;;;;;5073658;28;20033;-70
2023/07/26 13:40:33;;;;;;;4.13;1.73;;;;;;;;;;5073443;28;20554;-72
2023/07/26 13:43:00;;;;;;;2.97;1.50;;;;;;;;;;5072858;28;20055;-73
2023/07/26 13:45:26;;;;;;;2.28;1.40;;;;;;;;;;5074201;28;20385;-73
2023/07/26 13:47:52;;;;;;;4.32;1.80;;;;;;;;;;5073209;28;20036;-72
2023/07/26 13:50:18;;;;;;;4.60;2.25;;;;;;;;;;5073921;28;20047;-73
2023/07/26 13:52:44;;;;;;;4.18;2.22;;;;;;;;;;5072502;28;20445;-74
2023/07/26 13:55:10;;;;;;;6.40;2.25;;;;;;;;;;5073418;28;20024;-72
2023/07/26 13:57:36;;;;;;;6.55;3.05;;;;;;;;;;5072701;28;20100;-73
2023/07/26 14:00:02;;;;;;;3.35;2.00;;;;;;;;;;5073320;28;20025;-73
2023/07/26 14:02:28;;;;;;;4.28;1.98;;;;;;;;;;5073127;28;20549;-74
2023/07/26 14:04:54;;;;;;;3.53;2.15;;;;;;;;;;5072684;28;20474;-74
2023/07/26 14:07:20;;;;;;;2.75;1.77;;;;;;;;;;5073621;28;20032;-75
2023/07/26 14:09:46;;;;;;;3.08;1.83;;;;;;;;;;5073504;28;20419;-74
2023/07/26 14:12:13;;;;;;;6.85;2.00;;;;;;;;;;5072953;28;20036;-75
2023/07/26 14:14:39;;;;;;;3.95;2.03;;;;;;;;;;5073136;28;20482;-74
2023/07/26 14:17:05;;;;;;;4.30;1.95;;;;;;;;;;5073147;28;20039;-75
2023/07/26 14:19:31;;;;;;;5.65;2.47;;;;;;;;;;5073532;28;20050;-75
2023/07/26 14:21:58;;;;;;;5.00;1.95;;;;;;;;;;5073518;28;20109;-74
2023/07/26 14:24:24;;;;;;;3.95;1.83;;;;;;;;;;5074508;28;20024;-75
2023/07/26 14:26:50;;;;;;;4.53;1.63;;;;;;;;;;5073454;28;20035;-75
2023/07/26 14:29:16;;;;;;;2.72;1.70;;;;;;;;;;5074020;28;20096;-77
2023/07/26 14:31:41;;;;;;;3.55;1.75;;;;;;;;;;5073294;28;20079;-75
2023/07/26 14:34:08;;;;;;;2.75;1.63;;;;;;;;;;5073370;28;20027;-79
2023/07/26 14:36:33;;;;;;;3.03;1.60;;;;;;;;;;5072973;28;20028;-73